OTBH/IUD METAR and TAF weather

Enter ICAO airport designator
Station Type Date Time Source
OTBH METAR 2019/02/20 23:56 UTC NOAA

OTBH 202356Z 26007KT 9000 HZ CLR 11/06 A3014 RMK AO2A SLP208 T01070057 10149 20107 58007 $


Station Type Date Time Source
OTBH Decoded METAR 2019/02/20 23:56 UTC NOAA

Station name not available
Feb 20, 2019 - 06:56 PM EST / 2019.02.20 2356 UTC
Wind: from the W (260 degrees) at 8 MPH (7 KT):0
Visibility: 5 mile(s):0
Sky conditions: clear
Weather: haze
Temperature: 51.3 F (10.7 C)
Dew Point: 42.3 F (5.7 C)
Relative Humidity: 71%
Pressure (altimeter): 30.14 in. Hg (1020 hPa)
Pressure tendency: 0.02 inches (0.7 hPa) lower than three hours ago
ob: OTBH 202356Z 26007KT 9000 HZ CLR 11/06 A3014 RMK AO2A SLP208 T01070057 10149 20107 58007
cycle: 0

Station Type Date Time Source
OTBH TAF 2019/02/20 23:06 UTC NOAA

TAF OTBH 202300Z 2023/2205 29009KT 9000 HZ SKC QNH3010INS
BECMG 2112/2113 VRB06KT 9000 HZ FEW220 QNH3016INS TX22/2110Z TN09/2102Z


Example: see airport list